createdAt,value
2023-01-02T00:01:07.858Z,59.84
2023-01-02T00:03:34.883Z,59.81
2023-01-02T00:06:06.386Z,59.96
2023-01-02T00:08:33.620Z,59.91
2023-01-02T00:11:00.890Z,60.10
2023-01-02T00:13:27.886Z,60.01
2023-01-02T00:15:54.819Z,60.03
2023-01-02T00:18:21.799Z,60.09
2023-01-02T00:20:48.712Z,60.17
2023-01-02T00:23:15.608Z,60.23
2023-01-02T00:25:42.493Z,60.18
2023-01-02T00:28:09.363Z,60.28
2023-01-02T00:30:39.131Z,60.09
2023-01-02T00:33:08.829Z,60.20
2023-01-02T00:35:38.444Z,60.25
2023-01-02T00:38:06.247Z,60.15
2023-01-02T00:40:33.438Z,60.27
2023-01-02T00:43:00.449Z,60.01
2023-01-02T00:45:27.601Z,60.09
2023-01-02T00:47:54.523Z,60.31
2023-01-02T00:50:21.397Z,60.42
2023-01-02T00:52:48.293Z,60.32
2023-01-02T00:55:15.190Z,60.49
2023-01-02T00:57:42.123Z,60.52
2023-01-02T01:00:09.570Z,60.80
2023-01-02T01:02:36.564Z,60.64
2023-01-02T01:05:03.595Z,60.67
2023-01-02T01:07:30.510Z,60.81
2023-01-02T01:09:57.418Z,60.93
2023-01-02T01:12:24.335Z,61.19
2023-01-02T01:14:51.250Z,61.17
2023-01-02T01:17:18.181Z,61.24
2023-01-02T01:19:45.062Z,61.20
2023-01-02T01:22:12.109Z,61.42
2023-01-02T01:24:38.973Z,61.68
2023-01-02T01:27:05.855Z,61.56
2023-01-02T01:29:32.748Z,61.85
2023-01-02T01:31:59.679Z,61.92
2023-01-02T01:34:26.562Z,61.97
2023-01-02T01:36:53.466Z,62.23
2023-01-02T01:39:20.349Z,62.56
2023-01-02T01:41:47.237Z,62.46
2023-01-02T01:44:51.816Z,62.42
2023-01-02T01:47:42.634Z,62.39
2023-01-02T01:50:25.800Z,62.38
2023-01-02T01:53:06.361Z,62.17
2023-01-02T01:55:38.763Z,62.25
2023-01-02T01:58:10.712Z,62.42
2023-01-02T02:00:39.543Z,62.49
2023-01-02T02:03:15.864Z,62.57
2023-01-02T02:05:43.980Z,62.67
2023-01-02T02:08:40.219Z,62.49
2023-01-02T02:11:07.677Z,62.53
2023-01-02T02:13:34.779Z,62.33
2023-01-02T02:16:17.993Z,62.63
2023-01-02T02:19:08.051Z,62.48
2023-01-02T02:21:53.650Z,62.59
2023-01-02T02:24:39.662Z,62.69
2023-01-02T02:27:47.716Z,62.76
2023-01-02T02:30:20.223Z,62.87
2023-01-02T02:33:27.195Z,62.88
2023-01-02T02:36:22.082Z,63.10
2023-01-02T02:39:22.627Z,63.00
2023-01-02T02:42:46.811Z,62.91
2023-01-02T02:45:55.824Z,63.13
2023-01-02T02:48:47.452Z,63.10
2023-01-02T02:51:24.849Z,63.04
2023-01-02T02:54:00.156Z,63.40
2023-01-02T02:56:28.024Z,63.26
2023-01-02T02:58:55.606Z,63.11
2023-01-02T03:01:30.937Z,63.11
2023-01-02T03:03:58.594Z,63.12
2023-01-02T03:06:57.845Z,63.29
2023-01-02T03:09:56.903Z,63.46
2023-01-02T03:12:50.735Z,63.49
2023-01-02T03:15:28.729Z,63.61
2023-01-02T03:18:22.750Z,63.69
2023-01-02T03:21:10.521Z,63.75
2023-01-02T03:23:45.169Z,63.61
2023-01-02T03:26:16.518Z,63.74
2023-01-02T03:28:47.341Z,63.60
2023-01-02T03:31:19.371Z,63.68
2023-01-02T03:33:57.777Z,63.64
2023-01-02T03:36:29.263Z,63.54
2023-01-02T03:39:13.187Z,63.62
2023-01-02T03:41:51.439Z,63.42
2023-01-02T03:44:22.596Z,63.30
2023-01-02T03:47:06.210Z,63.47
2023-01-02T03:49:40.812Z,63.27
2023-01-02T03:52:07.783Z,63.35
2023-01-02T03:54:34.894Z,63.33
2023-01-02T03:57:06.573Z,63.32
2023-01-02T04:00:00.146Z,63.49
2023-01-02T04:02:55.107Z,63.44
2023-01-02T04:05:34.557Z,63.43
2023-01-02T04:08:21.089Z,63.33
2023-01-02T04:10:56.207Z,63.15
2023-01-02T04:13:44.407Z,63.15
2023-01-02T04:16:17.265Z,63.22
2023-01-02T04:18:55.748Z,63.24
2023-01-02T04:21:26.507Z,63.20
2023-01-02T04:24:02.210Z,63.08
2023-01-02T04:26:38.949Z,63.16
2023-01-02T04:29:05.935Z,63.06
2023-01-02T04:31:57.746Z,62.98
2023-01-02T04:34:28.060Z,62.65
2023-01-02T04:36:54.948Z,62.78
2023-01-02T04:39:23.476Z,62.61
2023-01-02T04:41:50.419Z,62.55
2023-01-02T04:44:17.389Z,62.31
2023-01-02T04:46:44.451Z,62.19
2023-01-02T04:49:11.418Z,62.32
2023-01-02T04:51:38.382Z,62.12
2023-01-02T04:54:05.307Z,62.06
2023-01-02T04:56:32.184Z,61.91
2023-01-02T04:58:59.094Z,61.78
2023-01-02T05:01:26.070Z,61.79
2023-01-02T05:03:53.117Z,61.64
2023-01-02T05:06:20.493Z,61.69
2023-01-02T05:08:47.501Z,61.49
2023-01-02T05:11:18.243Z,61.38
2023-01-02T05:13:45.671Z,61.55
2023-01-02T05:16:13.101Z,61.16
2023-01-02T05:18:40.049Z,61.03
2023-01-02T05:21:32.611Z,61.02
2023-01-02T05:24:02.575Z,60.96
2023-01-02T05:26:33.310Z,61.19
2023-01-02T05:29:00.759Z,60.87
2023-01-02T05:31:28.298Z,60.83
2023-01-02T05:33:58.371Z,60.64
2023-01-02T05:36:26.556Z,60.60
2023-01-02T05:38:54.102Z,60.61
2023-01-02T05:41:22.263Z,60.33
2023-01-02T05:43:49.176Z,60.31
2023-01-02T05:46:20.928Z,60.18
2023-01-02T05:48:48.332Z,60.05
2023-01-02T05:51:17.378Z,60.13
2023-01-02T05:53:44.398Z,59.82
2023-01-02T05:56:15.755Z,59.83
2023-01-02T05:58:46.164Z,60.00
2023-01-02T06:01:22.546Z,59.76
2023-01-02T06:03:53.030Z,59.77
2023-01-02T06:06:23.360Z,59.65
2023-01-02T06:08:50.534Z,59.79
2023-01-02T06:11:17.428Z,60.10
2023-01-02T06:13:44.317Z,60.05
2023-01-02T06:16:11.923Z,59.78
2023-01-02T06:18:39.917Z,59.68
2023-01-02T06:21:13.220Z,59.69
2023-01-02T06:23:40.936Z,59.33
2023-01-02T06:26:14.747Z,59.45
2023-01-02T06:28:42.087Z,59.29
2023-01-02T06:31:12.342Z,59.71
2023-01-02T06:33:39.393Z,59.64
2023-01-02T06:36:17.853Z,59.71
2023-01-02T06:38:45.598Z,59.66
2023-01-02T06:41:13.849Z,59.82
2023-01-02T06:43:46.829Z,59.73
2023-01-02T06:46:17.247Z,59.64
2023-01-02T06:48:44.533Z,59.84
2023-01-02T06:51:15.041Z,59.76
2023-01-02T06:53:43.725Z,59.83
2023-01-02T06:56:12.676Z,59.89
2023-01-02T06:58:39.959Z,59.81
2023-01-02T07:01:11.445Z,59.97
2023-01-02T07:03:38.680Z,59.95
2023-01-02T07:06:12.290Z,59.89
2023-01-02T07:08:40.049Z,59.88
2023-01-02T07:11:12.280Z,59.83
2023-01-02T07:13:40.516Z,60.09
2023-01-02T07:16:10.953Z,60.00
2023-01-02T07:18:38.092Z,59.90
2023-01-02T07:21:06.666Z,59.97
2023-01-02T07:23:34.459Z,59.76
2023-01-02T07:26:03.913Z,59.81
2023-01-02T07:28:31.718Z,59.33
2023-01-02T07:31:03.084Z,59.74
2023-01-02T07:33:30.672Z,59.28
2023-01-02T07:36:02.894Z,59.58
2023-01-02T07:38:30.759Z,59.48
2023-01-02T07:40:57.723Z,59.43
2023-01-02T07:43:25.443Z,59.40
2023-01-02T07:45:52.334Z,59.67
2023-01-02T07:48:19.533Z,59.39
2023-01-02T07:50:46.876Z,59.38
2023-01-02T07:53:13.906Z,59.59
2023-01-02T07:55:40.974Z,59.04
2023-01-02T07:58:07.999Z,59.34
2023-01-02T08:00:34.944Z,59.24
2023-01-02T08:03:02.123Z,59.33
2023-01-02T08:05:29.036Z,59.25
2023-01-02T08:07:55.897Z,59.28
2023-01-02T08:10:23.058Z,59.13
2023-01-02T08:12:49.922Z,59.05
2023-01-02T08:15:16.838Z,59.07
2023-01-02T08:17:43.796Z,58.81
2023-01-02T08:20:11.543Z,59.10
2023-01-02T08:22:38.498Z,58.64
2023-01-02T08:25:06.199Z,58.75
2023-01-02T08:27:33.236Z,58.75
2023-01-02T08:30:00.258Z,58.43
2023-01-02T08:32:27.452Z,58.86
2023-01-02T08:34:54.297Z,58.29
2023-01-02T08:37:21.507Z,58.44
2023-01-02T08:39:48.406Z,58.51
2023-01-02T08:42:15.274Z,58.38
2023-01-02T08:44:43.283Z,58.32
2023-01-02T08:47:10.270Z,58.25
2023-01-02T08:49:37.135Z,58.00
2023-01-02T08:52:04.022Z,58.05
2023-01-02T08:54:31.831Z,57.79
2023-01-02T08:56:58.750Z,57.98
2023-01-02T08:59:26.189Z,57.63
2023-01-02T09:01:53.875Z,57.50
2023-01-02T09:04:21.011Z,57.58
2023-01-02T09:06:48.101Z,57.47
2023-01-02T09:09:16.827Z,57.68
2023-01-02T09:11:50.214Z,57.60
2023-01-02T09:14:19.953Z,57.62
2023-01-02T09:16:47.317Z,57.49
2023-01-02T09:19:14.273Z,57.55
2023-01-02T09:21:41.122Z,57.32
2023-01-02T09:24:08.402Z,57.28
2023-01-02T09:26:37.989Z,57.23
2023-01-02T09:29:05.130Z,57.16
2023-01-02T09:31:32.203Z,57.13
2023-01-02T09:33:59.152Z,56.91
2023-01-02T09:36:26.116Z,56.76
2023-01-02T09:38:55.512Z,56.62
2023-01-02T09:41:38.804Z,56.60
2023-01-02T09:44:16.261Z,56.53
2023-01-02T09:46:50.805Z,56.25
2023-01-02T09:49:28.369Z,56.46
2023-01-02T09:51:55.487Z,56.23
2023-01-02T09:54:28.044Z,56.06
2023-01-02T09:57:15.321Z,56.12
2023-01-02T09:59:56.524Z,56.20
2023-01-02T10:03:17.028Z,55.80
2023-01-02T10:06:24.875Z,56.16
2023-01-02T10:09:30.074Z,55.74
2023-01-02T10:12:28.365Z,55.46
2023-01-02T10:15:06.941Z,55.34
2023-01-02T10:17:48.917Z,55.55
2023-01-02T10:20:28.200Z,55.17
2023-01-02T10:23:04.121Z,55.33
2023-01-02T10:25:39.724Z,55.27
2023-01-02T10:28:31.290Z,54.49
2023-01-02T10:31:12.268Z,54.16
2023-01-02T10:33:52.815Z,54.55
2023-01-02T10:36:27.249Z,54.36
2023-01-02T10:39:07.798Z,54.16
2023-01-02T10:41:36.156Z,53.68
2023-01-02T10:44:12.667Z,53.79
2023-01-02T10:46:42.058Z,53.44
2023-01-02T10:49:10.100Z,52.89
2023-01-02T10:51:44.045Z,53.10
2023-01-02T10:54:11.803Z,53.23
2023-01-02T10:56:40.613Z,52.14
2023-01-02T10:59:28.310Z,52.24
2023-01-02T11:01:59.992Z,52.48
2023-01-02T11:04:29.685Z,51.62
2023-01-02T11:07:01.492Z,51.55
2023-01-02T11:09:35.856Z,51.33
2023-01-02T11:12:12.215Z,51.29
2023-01-02T11:14:40.096Z,51.78
2023-01-02T11:17:23.653Z,51.10
2023-01-02T11:19:56.200Z,51.49
2023-01-02T11:22:36.166Z,51.47
2023-01-02T11:25:08.071Z,50.63
2023-01-02T11:27:40.540Z,50.55
2023-01-02T11:30:21.269Z,50.18
2023-01-02T11:32:49.102Z,50.10
2023-01-02T11:35:42.048Z,50.03
2023-01-02T11:38:29.801Z,49.84
2023-01-02T11:41:02.668Z,50.18
2023-01-02T11:43:51.814Z,50.22
2023-01-02T11:46:36.476Z,49.91
2023-01-02T11:49:14.298Z,49.91
2023-01-02T11:51:42.778Z,49.54
2023-01-02T11:54:19.840Z,49.48
2023-01-02T11:56:47.497Z,49.61
2023-01-02T11:59:36.890Z,49.57
2023-01-02T12:02:25.045Z,49.14
2023-01-02T12:04:51.958Z,49.20
2023-01-02T12:07:47.757Z,49.02
2023-01-02T12:10:37.563Z,49.17
2023-01-02T12:13:41.514Z,49.38
2023-01-02T12:16:34.294Z,49.13
2023-01-02T12:19:15.521Z,48.86
2023-01-02T12:22:22.638Z,49.01
2023-01-02T12:25:25.950Z,48.88
2023-01-02T12:28:38.593Z,49.10
2023-01-02T12:31:40.150Z,49.28
2023-01-02T12:34:43.719Z,49.40
2023-01-02T12:37:37.485Z,48.97
2023-01-02T12:40:32.186Z,49.11
2023-01-02T12:43:43.050Z,49.03
2023-01-02T12:46:28.187Z,49.16
2023-01-02T12:49:22.617Z,49.38
2023-01-02T12:52:20.202Z,49.65
2023-01-02T12:55:52.574Z,48.97
2023-01-02T12:58:50.922Z,49.75
2023-01-02T13:01:37.356Z,50.00
2023-01-02T13:04:27.596Z,50.05
2023-01-02T13:07:04.313Z,49.52
2023-01-02T13:09:41.894Z,49.93
2023-01-02T13:12:21.538Z,49.92
2023-01-02T13:14:59.465Z,49.92
2023-01-02T13:17:52.896Z,50.18
2023-01-02T13:20:58.333Z,50.35
2023-01-02T13:23:43.398Z,50.20
2023-01-02T13:26:14.097Z,50.10
2023-01-02T13:28:58.824Z,49.83
2023-01-02T13:34:23.925Z,49.87
2023-01-02T13:37:04.607Z,50.32
2023-01-02T13:39:46.956Z,50.04
2023-01-02T13:42:45.925Z,50.11
2023-01-02T13:45:18.303Z,49.57
2023-01-02T13:48:00.761Z,50.09
2023-01-02T13:50:38.317Z,50.06
2023-01-02T13:53:10.238Z,50.34
2023-01-02T13:56:03.746Z,50.59
2023-01-02T13:59:42.829Z,50.60
2023-01-02T14:02:20.049Z,50.81
2023-01-02T14:04:47.291Z,51.41
2023-01-02T14:07:44.364Z,51.42
2023-01-02T14:10:27.384Z,51.71
2023-01-02T14:13:02.214Z,51.58
2023-01-02T14:15:30.894Z,51.95
2023-01-02T14:18:05.381Z,52.05
2023-01-02T14:20:35.937Z,52.44
2023-01-02T14:23:09.848Z,52.64
2023-01-02T14:25:49.233Z,53.05
2023-01-02T14:28:27.083Z,53.33
2023-01-02T14:30:55.027Z,53.64
2023-01-02T14:33:33.589Z,53.62
2023-01-02T14:36:12.229Z,53.87
2023-01-02T14:38:54.728Z,53.61
2023-01-02T14:42:23.682Z,53.92
2023-01-02T14:45:00.016Z,54.01
2023-01-02T14:47:39.717Z,54.18
2023-01-02T14:50:30.562Z,54.09
2023-01-02T14:53:12.904Z,53.85
2023-01-02T14:55:42.235Z,53.71
2023-01-02T14:58:40.839Z,54.31
2023-01-02T15:01:08.774Z,54.31
2023-01-02T15:04:14.211Z,54.30
2023-01-02T15:07:23.229Z,54.87
2023-01-02T15:10:06.476Z,54.81
2023-01-02T15:13:01.700Z,54.78
2023-01-02T15:15:30.522Z,55.62
2023-01-02T15:18:03.798Z,55.90
2023-01-02T15:20:34.154Z,56.08
2023-01-02T15:23:01.584Z,55.86
2023-01-02T15:25:40.993Z,56.21
2023-01-02T15:28:33.229Z,55.91
2023-01-02T15:31:15.799Z,56.31
2023-01-02T15:33:42.840Z,56.08
2023-01-02T15:36:14.550Z,56.01
2023-01-02T15:38:42.917Z,55.64
2023-01-02T15:41:18.929Z,55.85
2023-01-02T15:44:04.866Z,55.54
2023-01-02T15:46:32.097Z,55.14
2023-01-02T15:49:00.086Z,54.64
2023-01-02T15:51:40.561Z,54.81
2023-01-02T15:54:15.121Z,54.76
2023-01-02T15:56:42.453Z,54.44
2023-01-02T15:59:34.280Z,53.64
2023-01-02T16:02:02.844Z,53.19
2023-01-02T16:04:32.736Z,52.94
2023-01-02T16:07:26.498Z,52.78
2023-01-02T16:09:56.214Z,52.90
2023-01-02T16:12:23.902Z,52.65
2023-01-02T16:14:55.885Z,51.72
2023-01-02T16:17:34.745Z,51.83
2023-01-02T16:20:07.556Z,51.55
2023-01-02T16:23:01.679Z,51.46
2023-01-02T16:25:37.202Z,51.54
2023-01-02T16:28:36.261Z,51.51
2023-01-02T16:31:18.112Z,51.56
2023-01-02T16:33:46.095Z,51.44
2023-01-02T16:36:15.773Z,51.65
2023-01-02T16:38:52.316Z,51.70
2023-01-02T16:41:45.170Z,51.91
2023-01-02T16:44:19.941Z,52.25
2023-01-02T16:46:48.964Z,52.13
2023-01-02T16:49:22.403Z,52.22
2023-01-02T16:51:51.980Z,52.14
2023-01-02T16:54:19.987Z,52.19
2023-01-02T16:56:47.819Z,52.32
2023-01-02T16:59:14.696Z,52.28
2023-01-02T17:01:41.761Z,52.25
2023-01-02T17:04:12.019Z,52.26
2023-01-02T17:06:38.916Z,52.38
2023-01-02T17:09:05.795Z,52.45
2023-01-02T17:11:32.691Z,52.49
2023-01-02T17:14:01.154Z,52.70
2023-01-02T17:16:28.140Z,52.68
2023-01-02T17:18:55.071Z,52.76
2023-01-02T17:21:24.190Z,52.82
2023-01-02T17:23:55.241Z,52.81
2023-01-02T17:26:22.166Z,52.73
2023-01-02T17:28:49.037Z,52.53
2023-01-02T17:31:18.906Z,52.69
2023-01-02T17:33:49.514Z,52.82
2023-01-02T17:36:16.427Z,53.05
2023-01-02T17:38:43.321Z,53.13
2023-01-02T17:41:10.214Z,53.01
2023-01-02T17:43:37.082Z,53.01
2023-01-02T17:46:30.801Z,53.08
2023-01-02T17:48:55.292Z,53.15
2023-01-02T17:51:22.232Z,53.09
2023-01-02T17:53:52.709Z,53.30
2023-01-02T17:56:22.394Z,53.20
2023-01-02T17:58:49.816Z,53.62
2023-01-02T18:01:19.852Z,53.90
2023-01-02T18:03:47.126Z,53.84
2023-01-02T18:06:15.242Z,54.20
2023-01-02T18:08:43.020Z,54.43
2023-01-02T18:11:15.456Z,54.41
2023-01-02T18:13:54.436Z,54.41
2023-01-02T18:16:38.257Z,54.44
2023-01-02T18:19:13.510Z,54.76
2023-01-02T18:21:40.661Z,54.95
2023-01-02T18:24:14.446Z,55.07
2023-01-02T18:26:41.465Z,55.14
2023-01-02T18:29:24.339Z,55.28
2023-01-02T18:31:51.611Z,55.49
2023-01-02T18:34:48.198Z,55.37
2023-01-02T18:37:23.396Z,55.42
2023-01-02T18:39:50.784Z,55.69
2023-01-02T18:42:21.996Z,55.49
2023-01-02T18:44:51.415Z,55.85
2023-01-02T18:47:31.815Z,55.71
2023-01-02T18:50:33.918Z,56.15
2023-01-02T18:53:16.468Z,56.05
2023-01-02T18:55:43.795Z,56.00
2023-01-02T18:58:37.615Z,56.26
2023-01-02T19:01:25.752Z,56.42
2023-01-02T19:03:58.085Z,56.32
2023-01-02T19:06:28.116Z,56.31
2023-01-02T19:09:02.359Z,56.54
2023-01-02T19:11:56.362Z,56.86
2023-01-02T19:14:26.261Z,56.78
2023-01-02T19:17:13.912Z,56.59
2023-01-02T19:19:40.992Z,56.87
2023-01-02T19:22:21.452Z,56.80
2023-01-02T19:24:48.808Z,56.60
2023-01-02T19:27:33.597Z,56.85
2023-01-02T19:30:25.801Z,56.53
2023-01-02T19:32:53.032Z,56.64
2023-01-02T19:35:25.687Z,56.60
2023-01-02T19:37:52.632Z,56.55
2023-01-02T19:40:23.801Z,56.14
2023-01-02T19:42:53.370Z,55.93
2023-01-02T19:45:23.915Z,56.04
2023-01-02T19:47:52.206Z,55.96
2023-01-02T19:50:25.427Z,56.46
2023-01-02T19:52:52.509Z,56.09
2023-01-02T19:55:19.770Z,56.10
2023-01-02T19:57:47.281Z,55.82
2023-01-02T20:00:16.342Z,56.26
2023-01-02T20:02:45.643Z,56.11
2023-01-02T20:05:20.828Z,56.19
2023-01-02T20:07:49.981Z,56.25
2023-01-02T20:10:17.602Z,55.95
2023-01-02T20:12:44.902Z,56.09
2023-01-02T20:15:23.425Z,55.45
2023-01-02T20:17:51.990Z,56.09
2023-01-02T20:20:22.810Z,55.75
2023-01-02T20:22:51.728Z,56.08
2023-01-02T20:25:23.965Z,55.91
2023-01-02T20:27:52.594Z,55.65
2023-01-02T20:30:24.237Z,55.99
2023-01-02T20:32:52.472Z,56.10
2023-01-02T20:35:19.351Z,55.89
2023-01-02T20:37:46.694Z,55.83
2023-01-02T20:40:13.675Z,56.01
2023-01-02T20:42:40.656Z,55.78
2023-01-02T20:45:08.429Z,55.85
2023-01-02T20:47:36.311Z,56.08
2023-01-02T20:50:04.884Z,56.05
2023-01-02T20:52:31.793Z,55.83
2023-01-02T20:54:59.380Z,55.73
2023-01-02T20:57:26.322Z,55.88
2023-01-02T20:59:53.280Z,55.71
2023-01-02T21:02:20.301Z,55.96
2023-01-02T21:04:47.241Z,55.83
2023-01-02T21:07:14.115Z,56.06
2023-01-02T21:09:41.001Z,56.13
2023-01-02T21:12:27.851Z,56.18
2023-01-02T21:14:54.743Z,56.17
2023-01-02T21:17:21.648Z,56.35
2023-01-02T21:19:48.514Z,56.15
2023-01-02T21:22:15.415Z,56.23
2023-01-02T21:24:43.596Z,56.21
2023-01-02T21:27:13.196Z,56.54
2023-01-02T21:29:40.542Z,56.44
2023-01-02T21:32:07.698Z,56.23
2023-01-02T21:34:34.573Z,56.36
2023-01-02T21:37:01.509Z,56.64
2023-01-02T21:39:28.420Z,56.42
2023-01-02T21:42:13.919Z,56.68
2023-01-02T21:44:40.803Z,56.64
2023-01-02T21:47:08.090Z,56.76
2023-01-02T21:49:35.012Z,56.99
2023-01-02T21:52:02.283Z,56.97
2023-01-02T21:54:29.315Z,56.80
2023-01-02T21:56:56.237Z,57.20
2023-01-02T21:59:25.418Z,57.29
2023-01-02T22:01:53.322Z,57.38
2023-01-02T22:04:21.262Z,57.49
2023-01-02T22:07:30.677Z,57.78
2023-01-02T22:09:36.375Z,57.67
2023-01-02T22:12:03.313Z,57.92
2023-01-02T22:14:38.172Z,57.97
2023-01-02T22:17:09.038Z,58.28
2023-01-02T22:19:36.738Z,58.88
2023-01-02T22:22:04.549Z,58.65
2023-01-02T22:24:31.818Z,59.15
2023-01-02T22:27:04.095Z,59.24
2023-01-02T22:30:00.321Z,59.49
2023-01-02T22:32:19.750Z,59.67
2023-01-02T22:34:46.856Z,59.93
2023-01-02T22:37:22.119Z,59.78
2023-01-02T22:39:49.756Z,60.03
2023-01-02T22:43:03.399Z,60.34
2023-01-02T22:45:45.241Z,60.44
2023-01-02T22:48:19.919Z,60.53
2023-01-02T22:50:48.275Z,61.16
2023-01-02T22:53:35.473Z,60.79
2023-01-02T22:56:19.523Z,61.01
2023-01-02T22:58:47.640Z,61.16
2023-01-02T23:01:36.523Z,61.16
2023-01-02T23:04:03.987Z,61.26
2023-01-02T23:06:31.455Z,61.33
2023-01-02T23:08:58.585Z,61.34
2023-01-02T23:11:25.503Z,61.41
2023-01-02T23:13:56.594Z,60.94
2023-01-02T23:16:42.651Z,61.20
2023-01-02T23:19:15.809Z,61.05
2023-01-02T23:21:45.617Z,61.02
2023-01-02T23:24:16.976Z,60.86
2023-01-02T23:26:48.231Z,60.61
2023-01-02T23:29:15.892Z,60.85
2023-01-02T23:31:47.042Z,60.27
2023-01-02T23:34:19.892Z,60.30
2023-01-02T23:36:47.157Z,59.97
2023-01-02T23:39:17.943Z,60.34
2023-01-02T23:41:45.583Z,60.00
2023-01-02T23:44:13.378Z,60.15
2023-01-02T23:46:40.795Z,60.21
2023-01-02T23:49:09.964Z,60.38
2023-01-02T23:51:38.997Z,59.79
2023-01-02T23:54:07.275Z,60.24
2023-01-02T23:56:39.276Z,60.15
2023-01-02T23:59:10.194Z,59.93
